createdAt,value
2018-09-12T00:04:47.233Z,2.70
2018-09-12T00:09:50.522Z,3.55
2018-09-12T00:14:53.847Z,1.87
2018-09-12T00:19:57.159Z,1.98
2018-09-12T00:25:00.475Z,2.40
2018-09-12T00:30:03.910Z,3.45
2018-09-12T00:35:07.387Z,3.35
2018-09-12T00:40:10.682Z,4.33
2018-09-12T00:45:14.030Z,3.33
2018-09-12T00:50:17.346Z,2.23
2018-09-12T00:55:20.642Z,4.80
2018-09-12T01:00:24.003Z,3.30
2018-09-12T01:05:27.310Z,5.83
2018-09-12T01:10:30.640Z,5.15
2018-09-12T01:15:33.960Z,2.10
2018-09-12T01:20:37.270Z,2.17
2018-09-12T01:25:40.603Z,5.37
2018-09-12T01:30:44.031Z,2.47
2018-09-12T01:35:47.346Z,2.83
2018-09-12T01:40:50.785Z,2.40
2018-09-12T01:45:54.058Z,3.50
2018-09-12T01:50:57.363Z,5.08
2018-09-12T01:56:00.670Z,2.92
2018-09-12T02:01:03.954Z,2.55
2018-09-12T02:06:07.375Z,3.85
2018-09-12T02:11:10.714Z,2.15
2018-09-12T02:16:13.992Z,3.80
2018-09-12T02:21:17.294Z,1.95
2018-09-12T02:26:20.598Z,2.25
2018-09-12T02:31:23.892Z,4.58
2018-09-12T02:36:29.292Z,2.87
2018-09-12T02:41:32.573Z,5.10
2018-09-12T02:46:35.875Z,3.25
2018-09-12T02:51:39.165Z,2.65
2018-09-12T02:56:42.449Z,2.98
2018-09-12T03:01:45.727Z,3.00
2018-09-12T03:06:49.013Z,3.47
2018-09-12T03:11:52.319Z,2.72
2018-09-12T03:16:55.595Z,2.55
2018-09-12T03:21:58.878Z,4.95
2018-09-12T03:27:02.155Z,4.87
2018-09-12T03:32:05.431Z,6.78
2018-09-12T03:37:08.705Z,4.75
2018-09-12T03:42:11.994Z,3.25
2018-09-12T03:47:15.284Z,3.35
2018-09-12T03:52:18.571Z,3.72
2018-09-12T03:57:21.842Z,4.15
2018-09-12T04:02:25.131Z,4.75
2018-09-12T04:07:28.407Z,2.42
2018-09-12T04:12:31.690Z,3.50
2018-09-12T04:17:36.483Z,2.72
2018-09-12T04:22:39.770Z,4.22
2018-09-12T04:27:43.323Z,6.08
2018-09-12T04:32:46.606Z,5.33
2018-09-12T04:37:50.031Z,6.70
2018-09-12T04:42:53.434Z,4.70
2018-09-12T04:47:56.686Z,6.95
2018-09-12T04:52:59.965Z,7.87
2018-09-12T04:58:03.267Z,4.22
2018-09-12T05:03:06.558Z,4.00
2018-09-12T05:08:09.852Z,5.08
2018-09-12T05:13:13.158Z,3.95
2018-09-12T05:18:16.610Z,4.90
2018-09-12T05:23:19.906Z,3.42
2018-09-12T05:28:23.222Z,4.70
2018-09-12T05:33:26.497Z,3.30
2018-09-12T05:38:29.787Z,3.90
2018-09-12T05:43:33.062Z,3.92
2018-09-12T05:48:36.390Z,4.30
2018-09-12T05:53:39.678Z,4.58
2018-09-12T05:58:42.963Z,6.47
2018-09-12T06:03:46.251Z,3.80
2018-09-12T06:08:49.533Z,5.95
2018-09-12T06:13:52.820Z,6.62
2018-09-12T06:18:56.539Z,5.20
2018-09-12T06:23:59.897Z,5.65
2018-09-12T06:29:03.174Z,5.62
2018-09-12T06:34:06.494Z,4.08
2018-09-12T06:39:11.640Z,5.40
2018-09-12T06:44:14.934Z,5.15
2018-09-12T06:49:18.231Z,4.17
2018-09-12T06:54:21.510Z,5.17
2018-09-12T06:59:24.790Z,4.33
2018-09-12T07:04:28.073Z,4.67
2018-09-12T07:09:31.360Z,9.90
2018-09-12T07:14:34.634Z,5.75
2018-09-12T07:19:37.950Z,3.20
2018-09-12T07:24:41.295Z,4.03
2018-09-12T07:29:44.552Z,4.95
2018-09-12T07:34:47.879Z,5.15
2018-09-12T07:39:51.162Z,5.12
2018-09-12T07:44:54.505Z,4.80
2018-09-12T07:49:57.786Z,2.58
2018-09-12T07:55:01.075Z,6.92
2018-09-12T08:00:05.517Z,5.80
2018-09-12T08:05:08.830Z,5.70
2018-09-12T08:10:12.130Z,6.30
2018-09-12T08:15:15.409Z,3.03
2018-09-12T08:20:18.855Z,8.47
2018-09-12T08:25:22.223Z,9.25
2018-09-12T08:30:25.502Z,5.92
2018-09-12T08:35:28.794Z,4.75
2018-09-12T08:40:32.074Z,4.67
2018-09-12T08:45:35.346Z,4.42
2018-09-12T08:50:38.618Z,4.95
2018-09-12T08:55:41.899Z,3.02
2018-09-12T09:00:45.487Z,3.40
2018-09-12T09:05:48.769Z,3.83
2018-09-12T09:10:52.066Z,7.53
2018-09-12T09:15:55.341Z,2.40
2018-09-12T09:20:58.618Z,3.72
2018-09-12T09:26:01.991Z,3.52
2018-09-12T09:31:05.282Z,3.90
2018-09-12T09:36:08.566Z,2.15
2018-09-12T09:41:11.851Z,2.75
2018-09-12T09:46:15.121Z,2.33
2018-09-12T09:51:18.393Z,3.75
2018-09-12T09:56:21.661Z,2.52
2018-09-12T10:01:30.354Z,6.45
2018-09-12T10:06:39.070Z,3.98
2018-09-12T10:11:42.948Z,2.65
2018-09-12T10:16:46.245Z,2.25
2018-09-12T10:21:49.537Z,1.50
2018-09-12T10:26:52.813Z,4.58
2018-09-12T10:31:56.098Z,2.60
2018-09-12T10:36:59.377Z,3.10
2018-09-12T10:42:02.645Z,2.75
2018-09-12T10:47:06.033Z,4.58
2018-09-12T10:52:09.306Z,1.90
2018-09-12T10:57:12.589Z,5.12
2018-09-12T11:02:15.870Z,2.30
2018-09-12T11:07:19.139Z,3.22
2018-09-12T11:12:22.427Z,3.05
2018-09-12T11:17:25.710Z,4.92
2018-09-12T11:22:28.986Z,2.42
2018-09-12T11:27:32.266Z,3.83
2018-09-12T11:32:35.544Z,3.22
2018-09-12T11:37:38.831Z,9.75
2018-09-12T11:42:42.107Z,2.87
2018-09-12T11:47:45.386Z,2.50
2018-09-12T11:52:48.666Z,2.25
2018-09-12T11:57:51.943Z,1.47
2018-09-12T12:02:55.249Z,1.62
2018-09-12T12:07:58.533Z,2.62
2018-09-12T12:13:01.817Z,3.77
2018-09-12T12:18:05.095Z,1.65
2018-09-12T12:23:08.431Z,2.55
2018-09-12T12:28:11.695Z,2.00
2018-09-12T12:33:14.974Z,2.62
2018-09-12T12:38:18.260Z,3.80
2018-09-12T12:43:21.550Z,2.15
2018-09-12T12:48:24.831Z,1.80
2018-09-12T12:53:28.123Z,1.65
2018-09-12T12:58:31.414Z,1.95
2018-09-12T13:03:34.690Z,2.37
2018-09-12T13:08:37.982Z,2.05
2018-09-12T13:13:41.266Z,6.00
2018-09-12T13:18:44.627Z,3.25
2018-09-12T13:23:48.438Z,4.05
2018-09-12T13:28:51.859Z,2.35
2018-09-12T13:33:55.219Z,4.87
2018-09-12T13:38:58.518Z,5.30
2018-09-12T13:44:01.823Z,2.98
2018-09-12T13:49:06.063Z,3.90
2018-09-12T13:54:09.364Z,2.67
2018-09-12T13:59:12.665Z,2.45
2018-09-12T14:04:16.007Z,3.75
2018-09-12T14:09:19.346Z,3.05
2018-09-12T14:14:23.604Z,3.42
2018-09-12T14:19:26.924Z,2.95
2018-09-12T14:24:30.277Z,1.27
2018-09-12T14:29:33.586Z,3.30
2018-09-12T14:34:36.936Z,1.98
2018-09-12T14:39:40.247Z,1.57
2018-09-12T14:44:43.546Z,4.55
2018-09-12T14:49:47.458Z,1.95
2018-09-12T14:54:50.788Z,2.58
2018-09-12T14:59:54.082Z,1.35
2018-09-12T15:04:57.419Z,1.70
2018-09-12T15:10:00.754Z,2.95
2018-09-12T15:15:04.121Z,2.50
2018-09-12T15:20:08.014Z,5.50
2018-09-12T15:25:11.360Z,2.20
2018-09-12T15:30:14.687Z,6.72
2018-09-12T15:35:18.046Z,3.00
2018-09-12T15:40:21.434Z,4.00
2018-09-12T15:45:24.784Z,2.43
2018-09-12T15:50:28.106Z,2.12
2018-09-12T15:55:31.414Z,4.12
2018-09-12T16:00:34.995Z,8.63
2018-09-12T16:05:38.329Z,18.12
2018-09-12T16:10:41.697Z,27.02
2018-09-12T16:15:45.004Z,28.20
2018-09-12T16:20:48.386Z,22.62
2018-09-12T16:25:51.683Z,27.98
2018-09-12T16:30:55.140Z,25.75
2018-09-12T16:35:58.468Z,24.35
2018-09-12T16:41:01.796Z,22.58
2018-09-12T16:46:05.102Z,22.60
2018-09-12T16:51:08.415Z,19.52
2018-09-12T16:56:11.783Z,19.98
2018-09-12T17:01:15.101Z,22.50
2018-09-12T17:06:18.411Z,19.00
2018-09-12T17:11:21.854Z,18.27
2018-09-12T17:16:25.298Z,17.62
2018-09-12T17:21:29.185Z,17.02
2018-09-12T17:26:32.876Z,14.47
2018-09-12T17:31:36.234Z,16.07
2018-09-12T17:36:39.543Z,14.15
2018-09-12T17:41:43.178Z,12.10
2018-09-12T17:46:46.629Z,13.68
2018-09-12T17:51:50.146Z,13.40
2018-09-12T17:56:53.479Z,13.28
2018-09-12T18:01:56.838Z,13.15
2018-09-12T18:07:01.005Z,10.15
2018-09-12T18:12:04.318Z,12.65
2018-09-12T18:17:07.618Z,11.65
2018-09-12T18:22:11.021Z,12.55
2018-09-12T18:27:14.374Z,13.05
2018-09-12T18:32:17.683Z,8.00
2018-09-12T18:37:21.003Z,13.30
2018-09-12T18:42:24.346Z,8.25
2018-09-12T18:47:27.860Z,7.58
2018-09-12T18:52:31.408Z,4.90
2018-09-12T18:57:34.815Z,8.35
2018-09-12T19:02:38.128Z,4.72
2018-09-12T19:07:41.722Z,5.10
2018-09-12T19:12:45.235Z,3.33
2018-09-12T19:17:48.519Z,4.60
2018-09-12T19:22:51.814Z,6.55
2018-09-12T19:27:55.122Z,3.95
2018-09-12T19:32:58.437Z,4.85
2018-09-12T19:38:01.754Z,4.50
2018-09-12T19:43:05.099Z,6.45
2018-09-12T19:48:08.630Z,5.42
2018-09-12T19:53:11.941Z,4.62
2018-09-12T19:58:15.241Z,3.47
2018-09-12T20:03:18.551Z,4.03
2018-09-12T20:08:21.887Z,3.20
2018-09-12T20:13:25.403Z,4.53
2018-09-12T20:18:28.934Z,2.52
2018-09-12T20:23:32.287Z,3.15
2018-09-12T20:28:39.027Z,7.85
2018-09-12T20:33:42.398Z,4.67
2018-09-12T20:38:45.698Z,2.50
2018-09-12T20:43:49.036Z,2.12
2018-09-12T20:48:52.363Z,3.25
2018-09-12T20:53:55.733Z,7.78
2018-09-12T20:58:59.037Z,3.30
2018-09-12T21:04:02.338Z,2.52
2018-09-12T21:09:09.296Z,4.00
2018-09-12T21:14:12.703Z,2.70
2018-09-12T21:19:16.104Z,4.10
2018-09-12T21:24:19.426Z,2.85
2018-09-12T21:29:22.762Z,4.53
2018-09-12T21:34:26.217Z,3.42
2018-09-12T21:39:29.522Z,2.08
2018-09-12T21:44:32.818Z,2.27
2018-09-12T21:49:36.134Z,1.82
2018-09-12T21:54:39.581Z,2.37
2018-09-12T21:59:42.898Z,2.17
2018-09-12T22:04:46.267Z,2.62
2018-09-12T22:09:49.565Z,2.67
2018-09-12T22:14:52.854Z,3.70
2018-09-12T22:19:56.194Z,2.15
2018-09-12T22:24:59.502Z,1.37
2018-09-12T22:30:02.819Z,1.72
2018-09-12T22:35:06.401Z,1.17
2018-09-12T22:40:09.795Z,1.27
2018-09-12T22:45:13.074Z,2.30
2018-09-12T22:50:16.351Z,1.30
2018-09-12T22:55:19.650Z,2.03
2018-09-12T23:00:23.046Z,1.57
2018-09-12T23:05:26.318Z,1.55
2018-09-12T23:10:29.618Z,2.22
2018-09-12T23:15:32.914Z,2.15
2018-09-12T23:20:36.193Z,1.85
2018-09-12T23:25:39.482Z,1.70
2018-09-12T23:30:42.762Z,1.30
2018-09-12T23:35:46.062Z,3.40
2018-09-12T23:40:49.338Z,1.30
2018-09-12T23:45:52.710Z,2.25
2018-09-12T23:50:55.937Z,3.62
2018-09-12T23:55:59.222Z,1.90
